Time;durP1;ratioP1;P1;durP2;ratioP2;P2;SDS_P1;SDS_P2;PMS_P1;PMS_P2;Temp;Humidity;BMP_temperature;BMP_pressure;BME280_temperature;BME280_humidity;BME280_pressure;Samples;Min_cycle;Max_cycle;Signal;HPM_P1;HPM_P2
2021/06/19 00:00:38;;;;;;;908.72;844.63;;;26.60;99.90;;;;;;5121203;28;20263;-78
2021/06/19 00:03:05;;;;;;;911.72;847.42;;;26.50;99.90;;;;;;5127293;28;20219;-78
2021/06/19 00:05:33;;;;;;;931.53;866.08;;;26.40;99.90;;;;;;5114428;28;20208;-78
2021/06/19 00:08:00;;;;;;;894.05;830.90;;;26.40;99.90;;;;;;5112927;28;20236;-78
2021/06/19 00:10:28;;;;;;;873.05;810.55;;;26.50;99.90;;;;;;5116128;28;20200;-78
2021/06/19 00:12:56;;;;;;;894.10;830.63;;;26.60;99.90;;;;;;5122233;28;20198;-78
2021/06/19 00:15:24;;;;;;;861.15;799.20;;;26.60;99.90;;;;;;5114877;28;20588;-78
2021/06/19 00:17:51;;;;;;;886.53;823.95;;;26.50;99.90;;;;;;5116557;28;20227;-78
2021/06/19 00:20:20;;;;;;;886.30;823.60;;;26.50;99.90;;;;;;5117870;28;20197;-78
2021/06/19 00:22:48;;;;;;;882.75;820.38;;;26.50;99.90;;;;;;5122310;28;20223;-78
2021/06/19 00:33:21;;;;;;;885.13;822.58;;;26.50;99.90;;;;;;5120445;28;20208;-77
2021/06/19 00:35:47;;;;;;;872.22;810.03;;;26.50;99.90;;;;;;5123454;28;20202;-77
2021/06/19 00:38:14;;;;;;;887.25;824.17;;;26.50;99.90;;;;;;5122871;28;20204;-77
2021/06/19 00:40:41;;;;;;;869.13;807.35;;;26.40;99.90;;;;;;5111355;28;20227;-77
2021/06/19 00:43:09;;;;;;;672.42;623.75;;;26.40;99.90;;;;;;5115255;28;20202;-77
2021/06/19 00:48:27;;;;;;;867.65;805.97;;;26.40;99.90;;;;;;5121827;28;20237;-78
2021/06/19 00:53:42;;;;;;;862.50;801.78;;;26.30;99.90;;;;;;5125967;28;20207;-79
2021/06/19 00:59:07;;;;;;;893.50;830.53;;;26.20;99.90;;;;;;5109021;28;20214;-78
2021/06/19 01:06:56;;;;;;;931.30;866.50;;;25.90;99.90;;;;;;5115183;28;20232;-78
2021/06/19 01:09:23;;;;;;;902.38;839.25;;;25.80;99.90;;;;;;5114791;28;20206;-78
2021/06/19 01:11:51;;;;;;;931.60;867.08;;;25.70;99.90;;;;;;5115295;28;20199;-78
2021/06/19 01:19:49;;;;;;;657.60;607.80;;;25.50;99.90;;;;;;5110920;28;20289;-77
2021/06/19 01:27:41;;;;;;;699.63;646.72;;;25.30;99.90;;;;;;5117228;28;20251;-77
2021/06/19 01:30:10;;;;;;;846.75;787.75;;;25.30;99.90;;;;;;5117364;28;20659;-77
2021/06/19 01:32:38;;;;;;;964.90;898.83;;;25.20;99.90;;;;;;5110814;28;20193;-77
2021/06/19 01:35:07;;;;;;;757.22;702.40;;;25.10;99.90;;;;;;5115782;28;20204;-77
2021/06/19 01:37:35;;;;;;;649.22;599.60;;;25.10;99.90;;;;;;5120322;28;20197;-77
2021/06/19 01:40:11;;;;;;;702.67;651.60;;;25.10;99.90;;;;;;5121173;28;20201;-77
2021/06/19 01:42:40;;;;;;;669.10;617.83;;;25.00;99.90;;;;;;5120501;28;20200;-77
2021/06/19 01:45:12;;;;;;;977.97;911.13;;;25.00;99.90;;;;;;5121516;28;20200;-78
2021/06/19 01:47:39;;;;;;;971.13;904.65;;;24.90;99.90;;;;;;5126731;28;20215;-77
2021/06/19 01:50:07;;;;;;;773.25;717.17;;;24.80;99.90;;;;;;5108601;28;20208;-77
2021/06/19 01:52:34;;;;;;;760.97;705.75;;;24.80;99.90;;;;;;5114686;28;20193;-77
2021/06/19 01:55:01;;;;;;;727.10;673.92;;;24.80;99.90;;;;;;5123630;28;20216;-77
2021/06/19 01:57:29;;;;;;;732.35;678.65;;;24.70;99.90;;;;;;5120787;28;20194;-77
2021/06/19 02:00:01;;;;;;;757.55;702.20;;;24.70;99.90;;;;;;5114108;28;20246;-77
2021/06/19 02:02:28;;;;;;;748.40;694.28;;;24.60;99.90;;;;;;5116100;28;20200;-77
2021/06/19 02:04:55;;;;;;;776.85;720.78;;;24.50;99.90;;;;;;5114700;28;20225;-77
2021/06/19 02:07:22;;;;;;;778.20;722.42;;;24.50;99.90;;;;;;5119276;28;20227;-76
2021/06/19 02:09:49;;;;;;;770.55;714.88;;;24.40;99.90;;;;;;5115326;28;20211;-77
2021/06/19 02:12:17;;;;;;;761.08;706.40;;;24.40;99.90;;;;;;5118643;28;20204;-76
2021/06/19 02:14:46;;;;;;;758.70;704.15;;;24.40;99.90;;;;;;5116157;28;20661;-77
2021/06/19 02:17:13;;;;;;;749.80;695.88;;;24.30;99.90;;;;;;5113727;28;20200;-77
2021/06/19 02:19:40;;;;;;;731.72;678.58;;;24.30;99.90;;;;;;5120926;28;20199;-77
2021/06/19 02:22:07;;;;;;;746.53;692.90;;;24.30;99.90;;;;;;5114450;28;20204;-77
2021/06/19 02:24:34;;;;;;;740.10;686.50;;;24.30;99.90;;;;;;5113120;28;20196;-77
2021/06/19 02:27:11;;;;;;;749.55;695.55;;;24.30;99.90;;;;;;5115488;28;20203;-77
2021/06/19 02:29:38;;;;;;;757.90;703.22;;;24.30;99.90;;;;;;5119449;28;20259;-77
2021/06/19 02:32:08;;;;;;;759.85;705.08;;;24.30;99.90;;;;;;5116556;28;20241;-77
2021/06/19 02:34:35;;;;;;;716.70;664.47;;;24.30;99.90;;;;;;5113083;28;20192;-77
2021/06/19 02:37:03;;;;;;;717.40;664.95;;;24.30;99.90;;;;;;5113156;28;20203;-77
2021/06/19 02:39:30;;;;;;;762.58;707.92;;;24.30;99.90;;;;;;5113220;28;20216;-77
2021/06/19 02:41:59;;;;;;;783.55;727.97;;;24.20;99.90;;;;;;5122784;28;20634;-77
2021/06/19 02:44:25;;;;;;;770.45;715.40;;;24.20;99.90;;;;;;5118263;28;20572;-77
2021/06/19 02:46:52;;;;;;;774.53;719.20;;;24.10;99.90;;;;;;5123376;28;20201;-77
2021/06/19 02:49:21;;;;;;;762.55;708.20;;;24.10;99.90;;;;;;5120911;28;20269;-76
2021/06/19 02:51:47;;;;;;;780.00;724.92;;;24.00;99.90;;;;;;5116131;28;20662;-77
2021/06/19 02:54:18;;;;;;;784.53;729.15;;;23.90;99.90;;;;;;5115278;28;20204;-77
2021/06/19 02:56:45;;;;;;;759.95;705.72;;;23.90;99.90;;;;;;5122911;28;20208;-77
2021/06/19 02:59:13;;;;;;;747.35;694.03;;;23.90;99.90;;;;;;5126832;28;20202;-77
2021/06/19 03:01:39;;;;;;;754.17;700.30;;;24.00;99.90;;;;;;5123487;28;20196;-77
2021/06/19 03:04:06;;;;;;;736.38;683.20;;;23.90;99.90;;;;;;5117676;28;20232;-77
2021/06/19 03:06:42;;;;;;;768.38;713.58;;;23.90;99.90;;;;;;5117069;28;20204;-77
2021/06/19 03:09:09;;;;;;;756.42;702.45;;;24.00;99.90;;;;;;5123948;28;20253;-76
2021/06/19 03:11:36;;;;;;;752.30;698.53;;;24.00;99.90;;;;;;5116232;28;20203;-76
2021/06/19 03:14:03;;;;;;;736.40;683.20;;;24.00;99.90;;;;;;5118486;28;20200;-76
2021/06/19 03:16:31;;;;;;;755.58;701.70;;;24.00;99.90;;;;;;5121524;28;20276;-77
2021/06/19 03:18:59;;;;;;;754.22;700.22;;;24.00;99.90;;;;;;5113689;28;20201;-77
2021/06/19 03:21:26;;;;;;;782.72;727.60;;;23.90;99.90;;;;;;5112978;28;20220;-76
2021/06/19 03:23:54;;;;;;;738.42;685.15;;;23.90;99.90;;;;;;5120334;28;20263;-76
2021/06/19 03:26:21;;;;;;;749.05;695.20;;;23.90;99.90;;;;;;5121996;28;21166;-77
2021/06/19 03:28:48;;;;;;;753.65;699.60;;;23.90;99.90;;;;;;5120081;28;20216;-77
2021/06/19 03:31:15;;;;;;;773.30;718.10;;;23.80;99.90;;;;;;5123555;28;20226;-77
2021/06/19 03:33:42;;;;;;;767.40;712.95;;;23.80;99.90;;;;;;5127666;28;20214;-77
2021/06/19 03:49:35;;;;;;;772.83;718.22;;;23.70;99.90;;;;;;5128220;28;20226;-78
2021/06/19 03:52:02;;;;;;;763.47;708.95;;;23.70;99.90;;;;;;5117342;28;20193;-78
2021/06/19 03:54:29;;;;;;;766.15;711.85;;;23.60;99.90;;;;;;5117402;28;20332;-77
2021/06/19 04:07:41;;;;;;;771.58;717.22;;;23.50;99.90;;;;;;5123874;28;20556;-77
2021/06/19 04:10:09;;;;;;;797.90;742.05;;;23.40;99.90;;;;;;5119602;28;20209;-78
2021/06/19 04:12:38;;;;;;;784.20;729.28;;;23.40;99.90;;;;;;5130044;28;20200;-78
2021/06/19 04:15:07;;;;;;;785.70;730.70;;;23.30;99.90;;;;;;5120150;28;20200;-78
2021/06/19 04:17:34;;;;;;;810.92;754.78;;;23.30;99.90;;;;;;5124023;28;20200;-78
2021/06/19 04:20:01;;;;;;;789.05;734.08;;;23.20;99.90;;;;;;5116819;28;20200;-77
2021/06/19 04:22:27;;;;;;;789.58;734.40;;;23.20;99.90;;;;;;5122027;28;20210;-77
2021/06/19 04:24:54;;;;;;;772.97;718.17;;;23.20;99.90;;;;;;5119227;28;20195;-78
2021/06/19 04:27:22;;;;;;;760.67;707.08;;;23.30;99.90;;;;;;5126721;28;20213;-77
2021/06/19 04:29:50;;;;;;;771.22;717.22;;;23.30;99.90;;;;;;5122416;28;20227;-77
2021/06/19 04:32:18;;;;;;;748.80;695.70;;;23.30;99.90;;;;;;5129731;28;20199;-77
2021/06/19 04:34:45;;;;;;;766.65;712.50;;;23.20;99.90;;;;;;5113244;28;20270;-77
2021/06/19 04:37:13;;;;;;;621.42;572.35;;;23.30;99.90;;;;;;5112258;28;20479;-77
2021/06/19 04:39:45;;;;;;;721.55;669.00;;;23.30;99.90;;;;;;5120116;28;20210;-77
2021/06/19 04:42:15;;;;;;;742.65;689.28;;;23.50;99.90;;;;;;5113811;28;20274;-77
2021/06/19 04:45:01;;;;;;;741.80;688.95;;;23.80;99.90;;;;;;5124278;28;20664;-77
2021/06/19 04:47:30;;;;;;;743.75;690.58;;;24.00;99.90;;;;;;5124567;27;20218;-77
2021/06/19 04:49:58;;;;;;;727.25;675.03;;;24.30;99.90;;;;;;5115689;28;20285;-77
2021/06/19 04:52:26;;;;;;;710.08;658.05;;;24.50;99.90;;;;;;5123369;28;20199;-77
2021/06/19 04:54:55;;;;;;;722.03;669.55;;;24.80;99.90;;;;;;5118042;28;20206;-77
2021/06/19 04:57:22;;;;;;;673.13;623.05;;;24.90;99.90;;;;;;5119552;28;20199;-77
2021/06/19 04:59:50;;;;;;;708.03;656.28;;;25.10;99.90;;;;;;5125018;28;20222;-77
2021/06/19 05:02:17;;;;;;;614.55;566.30;;;25.20;99.90;;;;;;5109847;28;20455;-78
2021/06/19 05:04:45;;;;;;;663.67;614.00;;;25.10;99.90;;;;;;5117101;28;20281;-77
2021/06/19 05:07:12;;;;;;;680.35;630.03;;;25.10;99.90;;;;;;5117835;28;20205;-78
2021/06/19 05:09:40;;;;;;;684.33;633.92;;;24.90;99.90;;;;;;5109732;28;20225;-78
2021/06/19 05:12:12;;;;;;;690.22;639.47;;;24.70;99.90;;;;;;5113369;28;20204;-77
2021/06/19 05:14:39;;;;;;;668.78;619.53;;;24.30;99.90;;;;;;5119843;28;20223;-77
2021/06/19 05:17:06;;;;;;;683.08;633.17;;;24.10;99.90;;;;;;5114670;28;20225;-77
2021/06/19 05:19:33;;;;;;;676.78;626.67;;;24.10;99.90;;;;;;5120430;28;20210;-77
2021/06/19 05:22:01;;;;;;;705.40;654.10;;;24.00;99.90;;;;;;5124012;28;20215;-76
2021/06/19 05:29:50;;;;;;;663.97;615.72;;;23.80;99.90;;;;;;5112079;28;20232;-77
2021/06/19 05:32:17;;;;;;;679.33;629.60;;;23.70;99.90;;;;;;5119408;28;20220;-78
2021/06/19 05:34:45;;;;;;;674.90;625.22;;;23.60;99.90;;;;;;5115915;28;20663;-77
2021/06/19 05:37:13;;;;;;;604.53;560.20;;;23.60;99.90;;;;;;5123121;28;20199;-77
2021/06/19 05:39:40;;;;;;;705.85;654.60;;;23.60;99.90;;;;;;5118278;28;20207;-77
2021/06/19 05:42:07;;;;;;;696.80;646.45;;;23.60;99.90;;;;;;5118808;28;20201;-77
2021/06/19 05:44:34;;;;;;;702.40;651.28;;;23.60;99.90;;;;;;5115716;28;20580;-77
2021/06/19 05:47:01;;;;;;;602.08;556.50;;;23.60;99.90;;;;;;5119061;28;20945;-76
2021/06/19 05:49:28;;;;;;;682.33;631.85;;;23.60;99.90;;;;;;5133587;27;20269;-76
2021/06/19 05:51:55;;;;;;;686.67;636.55;;;23.60;99.90;;;;;;5142341;27;20201;-77
2021/06/19 05:54:25;;;;;;;711.15;659.90;;;23.50;99.90;;;;;;5128332;27;20196;-77
2021/06/19 05:56:52;;;;;;;714.97;663.47;;;23.50;99.90;;;;;;5139782;27;20213;-77
2021/06/19 05:59:19;;;;;;;681.33;631.22;;;23.60;99.90;;;;;;5134603;27;20206;-77
2021/06/19 06:01:46;;;;;;;693.35;642.75;;;23.70;99.90;;;;;;5135925;27;20206;-78
2021/06/19 06:04:13;;;;;;;601.15;557.03;;;23.80;99.90;;;;;;5125815;28;20230;-80
2021/06/19 06:06:48;;;;;;;620.67;574.92;;;23.90;99.90;;;;;;5138951;28;20209;-80
2021/06/19 06:09:16;;;;;;;910.45;848.30;;;24.10;99.90;;;;;;5143529;27;20251;-79
2021/06/19 06:11:44;;;;;;;803.55;748.88;;;24.50;99.90;;;;;;5142140;28;20236;-80
2021/06/19 06:14:11;;;;;;;574.85;531.90;;;24.90;99.90;;;;;;5140753;28;20191;-79
2021/06/19 06:16:39;;;;;;;601.67;559.38;;;25.10;99.90;;;;;;5138445;27;20212;-80
2021/06/19 06:19:06;;;;;;;539.45;500.05;;;25.30;99.90;;;;;;5141219;27;20195;-79
2021/06/19 06:21:34;;;;;;;519.88;482.38;;;25.40;99.90;;;;;;5134958;27;20203;-79
2021/06/19 06:24:01;;;;;;;541.50;501.95;;;25.30;99.90;;;;;;5137400;27;20200;-79
2021/06/19 06:26:29;;;;;;;525.67;487.10;;;25.10;99.90;;;;;;5139367;27;20657;-79
2021/06/19 06:28:58;;;;;;;672.00;623.92;;;24.90;99.90;;;;;;5141077;27;20227;-78
2021/06/19 06:31:25;;;;;;;536.67;497.40;;;24.90;99.90;;;;;;5145432;27;20203;-78
2021/06/19 06:33:52;;;;;;;528.88;490.30;;;25.00;99.90;;;;;;5131291;28;20202;-78
2021/06/19 06:36:19;;;;;;;531.78;493.33;;;25.20;99.90;;;;;;5136160;27;20216;-78
2021/06/19 06:38:46;;;;;;;502.23;466.23;;;25.10;99.90;;;;;;5140048;27;20199;-78
2021/06/19 06:41:13;;;;;;;585.50;543.33;;;25.10;99.90;;;;;;5132071;27;20197;-79
2021/06/19 06:43:41;;;;;;;531.25;492.55;;;25.20;99.90;;;;;;5143607;27;20810;-78
2021/06/19 06:46:10;;;;;;;582.28;541.58;;;25.20;99.90;;;;;;5135312;27;20211;-78
2021/06/19 06:48:37;;;;;;;484.40;449.60;;;25.30;99.90;;;;;;5143442;27;20624;-78
2021/06/19 06:51:04;;;;;;;541.65;503.83;;;25.50;99.90;;;;;;5136254;27;20207;-78
2021/06/19 06:53:30;;;;;;;529.03;489.35;;;25.80;99.90;;;;;;5151266;27;20221;-78
2021/06/19 06:55:57;;;;;;;449.02;417.75;;;26.10;99.90;;;;;;5135303;27;20198;-78
2021/06/19 06:58:24;;;;;;;432.73;402.60;;;26.20;99.90;;;;;;5141937;27;20638;-79
2021/06/19 07:00:52;;;;;;;405.88;378.42;;;26.50;99.90;;;;;;5143321;27;20200;-78
2021/06/19 07:03:20;;;;;;;411.63;383.10;;;27.00;99.90;;;;;;5141704;27;20326;-78
2021/06/19 07:05:48;;;;;;;418.67;391.63;;;27.20;99.90;;;;;;5143665;27;20195;-78
2021/06/19 07:08:14;;;;;;;396.80;369.50;;;27.40;99.90;;;;;;5136902;27;20205;-79
2021/06/19 07:10:41;;;;;;;390.65;364.50;;;27.40;99.90;;;;;;5134124;27;20228;-78
2021/06/19 07:13:08;;;;;;;366.25;342.15;;;27.50;99.90;;;;;;5136716;27;20200;-79
2021/06/19 07:15:36;;;;;;;673.08;622.55;;;27.60;99.90;;;;;;5145965;27;20198;-79
2021/06/19 07:18:03;;;;;;;430.10;399.55;;;27.70;99.90;;;;;;5139624;27;20199;-79
2021/06/19 07:20:33;;;;;;;367.90;343.98;;;27.80;99.90;;;;;;5136317;27;20197;-79
2021/06/19 07:25:41;;;;;;;340.80;319.27;;;28.10;99.90;;;;;;5117877;27;20201;-79
2021/06/19 07:28:08;;;;;;;393.48;367.48;;;28.20;99.90;;;;;;5138935;27;20201;-80
2021/06/19 07:30:36;;;;;;;380.23;354.42;;;28.30;99.90;;;;;;5139831;27;20229;-79
2021/06/19 07:33:03;;;;;;;323.15;303.23;;;28.20;99.90;;;;;;5139584;27;20229;-79
2021/06/19 07:35:32;;;;;;;403.90;375.95;;;28.30;99.90;;;;;;5142929;27;20216;-79
2021/06/19 07:43:21;;;;;;;289.17;271.13;;;28.30;99.90;;;;;;5138505;27;20453;-79
2021/06/19 07:45:48;;;;;;;406.27;378.30;;;28.20;99.90;;;;;;5141419;27;20209;-79
2021/06/19 07:48:22;;;;;;;342.73;320.38;;;28.10;99.90;;;;;;5130690;28;20247;-78
2021/06/19 07:51:06;;;;;;;335.05;314.15;;;28.00;99.90;;;;;;5141718;27;20231;-79
2021/06/19 07:56:13;;;;;;;346.17;323.73;;;28.10;99.90;;;;;;5134128;27;20209;-79
2021/06/19 07:58:40;;;;;;;263.52;248.00;;;28.20;99.90;;;;;;5137671;27;20446;-79
2021/06/19 08:01:11;;;;;;;618.90;568.67;;;28.30;99.90;;;;;;5145315;27;20444;-79
2021/06/19 08:03:45;;;;;;;709.60;655.03;;;28.30;99.90;;;;;;5135915;27;20487;-79
2021/06/19 08:06:15;;;;;;;699.10;645.72;;;28.20;99.90;;;;;;5128497;27;20200;-79
2021/06/19 08:08:42;;;;;;;698.40;645.17;;;28.20;99.90;;;;;;5138784;27;20208;-79
2021/06/19 08:11:09;;;;;;;712.53;658.30;;;28.20;99.90;;;;;;5142382;27;20207;-79
2021/06/19 08:13:36;;;;;;;718.47;664.15;;;28.20;99.90;;;;;;5139730;27;20208;-79
2021/06/19 08:16:15;;;;;;;718.40;664.03;;;28.20;99.90;;;;;;5147012;27;20201;-79
2021/06/19 08:24:28;;;;;;;451.25;420.55;;;28.00;99.90;;;;;;5139526;27;20209;-80
2021/06/19 08:26:54;;;;;;;592.08;545.85;;;27.90;99.90;;;;;;5139228;27;20205;-80
2021/06/19 08:29:21;;;;;;;379.65;354.23;;;27.70;99.90;;;;;;5137002;27;20224;-79
2021/06/19 08:31:48;;;;;;;389.67;364.42;;;27.80;99.90;;;;;;5138068;27;20228;-79
2021/06/19 08:34:15;;;;;;;418.17;389.58;;;27.90;99.90;;;;;;5135007;27;20194;-79
2021/06/19 08:36:55;;;;;;;582.22;538.22;;;28.10;99.90;;;;;;5143867;27;20201;-79
2021/06/19 08:42:10;;;;;;;384.90;360.13;;;28.40;99.90;;;;;;5127848;27;20213;-79
2021/06/19 08:44:44;;;;;;;660.58;609.35;;;28.60;99.90;;;;;;5133713;27;20205;-79
2021/06/19 08:47:12;;;;;;;384.40;359.13;;;28.90;99.90;;;;;;5138557;27;20201;-79
2021/06/19 08:49:39;;;;;;;355.88;332.77;;;29.30;99.90;;;;;;5136804;27;20279;-79
2021/06/19 08:54:49;;;;;;;323.55;303.35;;;29.70;99.90;;;;;;5135174;27;20248;-79
2021/06/19 08:57:17;;;;;;;334.23;312.85;;;30.20;99.90;;;;;;5140737;27;20215;-79
2021/06/19 08:59:48;;;;;;;311.77;292.40;;;31.00;99.90;;;;;;5137289;27;20210;-79
2021/06/19 09:02:15;;;;;;;386.77;361.42;;;31.60;99.90;;;;;;5148908;27;20194;-80
2021/06/19 09:04:55;;;;;;;301.30;282.15;;;31.80;99.90;;;;;;5137674;27;20233;-79
2021/06/19 09:07:44;;;;;;;346.75;323.52;;;31.90;99.90;;;;;;5139502;27;20196;-80
2021/06/19 09:10:25;;;;;;;328.88;307.35;;;31.90;99.90;;;;;;5130633;27;20214;-80
2021/06/19 09:13:00;;;;;;;294.20;276.10;;;31.80;99.90;;;;;;5136041;27;20217;-80
2021/06/19 09:18:15;;;;;;;267.60;251.13;;;32.00;99.90;;;;;;5128654;27;20310;-80
2021/06/19 09:23:33;;;;;;;329.05;306.50;;;32.10;99.90;;;;;;5137046;27;20289;-80
2021/06/19 09:26:11;;;;;;;285.63;267.90;;;32.40;99.90;;;;;;5146321;27;20198;-80
2021/06/19 09:28:58;;;;;;;249.38;234.70;;;32.60;99.90;;;;;;5133923;27;20215;-80
2021/06/19 09:31:37;;;;;;;252.70;237.40;;;32.40;99.90;;;;;;5132907;27;20232;-80
2021/06/19 09:34:06;;;;;;;370.77;345.52;;;32.30;99.90;;;;;;5134565;27;20200;-82
2021/06/19 09:36:42;;;;;;;635.58;584.90;;;31.80;99.90;;;;;;5143349;27;20195;-82
2021/06/19 09:39:35;;;;;;;542.38;499.27;;;31.50;99.90;;;;;;5147168;27;20268;-79
2021/06/19 09:42:03;;;;;;;543.78;500.92;;;31.70;99.90;;;;;;5146624;27;20238;-80
2021/06/19 09:47:22;;;;;;;526.50;484.75;;;32.10;99.90;;;;;;5129779;28;20214;-80
2021/06/19 09:52:31;;;;;;;366.88;341.38;;;32.30;99.90;;;;;;5139865;27;20202;-78
2021/06/19 09:55:01;;;;;;;506.05;466.02;;;32.40;99.90;;;;;;5140173;27;20205;-79
2021/06/19 09:57:38;;;;;;;333.40;310.77;;;32.50;99.90;;;;;;5140088;27;20194;-79
2021/06/19 10:00:07;;;;;;;276.63;258.98;;;32.60;99.70;;;;;;5132999;27;20292;-79
2021/06/19 10:16:11;;;;;;;250.35;234.98;;;33.30;98.50;;;;;;5153390;27;20193;-79
2021/06/19 10:18:39;;;;;;;336.17;312.20;;;33.60;97.90;;;;;;5149640;27;20202;-79
2021/06/19 10:21:07;;;;;;;241.93;227.25;;;34.00;96.80;;;;;;5162839;27;20255;-80
2021/06/19 10:23:50;;;;;;;225.73;212.15;;;34.10;96.70;;;;;;5148656;27;20226;-79
2021/06/19 10:29:00;;;;;;;297.80;277.70;;;34.30;94.70;;;;;;5156020;27;20206;-79
2021/06/19 10:31:28;;;;;;;410.38;379.60;;;34.30;95.30;;;;;;5155143;27;20213;-79
2021/06/19 10:33:55;;;;;;;205.57;193.55;;;34.30;94.40;;;;;;5160737;27;20680;-79
2021/06/19 10:36:37;;;;;;;372.65;346.20;;;34.10;94.30;;;;;;5158331;27;20198;-79
2021/06/19 10:41:50;;;;;;;245.75;230.82;;;34.20;94.30;;;;;;5149464;27;20202;-79
2021/06/19 10:47:34;;;;;;;156.10;147.63;;;34.60;94.30;;;;;;5162450;27;20204;-79
2021/06/19 10:56:06;;;;;;;215.07;201.95;;;34.10;94.20;;;;;;5163785;27;20197;-79
2021/06/19 11:07:57;;;;;;;401.27;372.05;;;33.30;94.70;;;;;;5151465;27;20202;-80
2021/06/19 11:10:58;;;;;;;283.50;265.25;;;33.50;94.80;;;;;;5145445;27;20302;-79
2021/06/19 11:13:49;;;;;;;374.60;347.88;;;33.50;94.40;;;;;;5086317;28;20200;-79
2021/06/19 11:16:44;;;;;;;422.48;390.95;;;33.40;93.90;;;;;;5080462;28;20204;-80
2021/06/19 11:22:29;;;;;;;468.70;432.55;;;32.80;94.60;;;;;;5068874;28;20197;-80
2021/06/19 11:25:19;;;;;;;294.50;275.58;;;32.70;94.20;;;;;;5067937;28;20232;-80
2021/06/19 11:27:55;;;;;;;277.48;260.70;;;32.30;94.70;;;;;;5069469;28;20781;-80
2021/06/19 11:33:57;;;;;;;291.42;273.23;;;31.60;95.40;;;;;;5081034;28;20224;-80
2021/06/19 11:36:36;;;;;;;275.23;258.52;;;31.30;95.10;;;;;;5075875;28;20283;-79
2021/06/19 11:39:15;;;;;;;298.10;278.83;;;31.10;96.40;;;;;;5070754;28;20200;-80
2021/06/19 11:44:34;;;;;;;320.65;300.13;;;31.00;96.30;;;;;;5084570;28;20730;-79
2021/06/19 11:47:18;;;;;;;307.75;288.20;;;31.10;96.70;;;;;;5097920;27;20567;-79
2021/06/19 11:49:54;;;;;;;341.75;319.60;;;31.10;97.30;;;;;;5147106;27;20195;-80
2021/06/19 11:52:21;;;;;;;334.90;313.13;;;30.80;96.80;;;;;;5132852;27;20209;-79
2021/06/19 11:54:54;;;;;;;356.67;332.88;;;30.70;97.60;;;;;;5146070;27;20199;-79
2021/06/19 11:57:27;;;;;;;335.50;313.83;;;30.60;96.00;;;;;;5130568;27;20260;-79
2021/06/19 12:00:09;;;;;;;358.25;334.45;;;30.50;97.50;;;;;;5141769;27;20209;-79
2021/06/19 12:02:51;;;;;;;348.25;325.38;;;30.60;96.60;;;;;;5134129;27;20199;-79
2021/06/19 12:05:19;;;;;;;337.75;315.80;;;30.70;97.70;;;;;;5145265;27;20252;-79
2021/06/19 12:15:53;;;;;;;331.77;310.45;;;30.90;97.70;;;;;;5142733;27;20268;-80
2021/06/19 12:18:21;;;;;;;314.85;294.73;;;31.00;97.50;;;;;;5142262;27;20266;-80
2021/06/19 12:20:58;;;;;;;321.75;301.23;;;31.00;96.70;;;;;;5138461;27;20199;-80
2021/06/19 12:23:31;;;;;;;412.50;383.23;;;31.00;97.70;;;;;;5141536;27;20225;-80
2021/06/19 12:26:05;;;;;;;329.95;308.60;;;31.00;97.20;;;;;;5131679;27;20199;-80
2021/06/19 12:34:02;;;;;;;520.83;480.52;;;30.90;98.00;;;;;;5127460;27;20668;-80
2021/06/19 12:36:33;;;;;;;545.45;502.50;;;30.90;97.70;;;;;;5131571;27;20205;-80
2021/06/19 12:39:00;;;;;;;369.30;343.80;;;30.90;97.80;;;;;;5130396;27;20194;-80
2021/06/19 12:44:10;;;;;;;345.08;322.33;;;31.10;97.20;;;;;;5131785;27;20210;-80
2021/06/19 12:46:37;;;;;;;358.75;334.55;;;31.20;97.50;;;;;;5141700;27;20264;-81
2021/06/19 12:49:07;;;;;;;356.60;332.60;;;31.20;97.20;;;;;;5124973;27;20199;-80
2021/06/19 12:51:40;;;;;;;343.38;320.40;;;31.30;98.10;;;;;;5135941;27;20194;-80
2021/06/19 12:54:18;;;;;;;319.65;299.25;;;31.30;97.60;;;;;;5137832;27;20227;-80
2021/06/19 12:57:03;;;;;;;343.10;320.50;;;31.30;97.40;;;;;;5140485;27;20202;-80
2021/06/19 13:05:22;;;;;;;537.00;494.65;;;31.20;97.90;;;;;;5141378;27;20671;-80
2021/06/19 13:10:33;;;;;;;550.78;506.98;;;31.30;96.80;;;;;;5141143;27;20199;-80
2021/06/19 13:13:00;;;;;;;416.27;386.77;;;31.40;97.50;;;;;;5132813;27;20203;-80
2021/06/19 13:18:15;;;;;;;348.05;324.45;;;31.20;97.90;;;;;;5135409;27;20197;-80
2021/06/19 13:23:40;;;;;;;448.55;415.80;;;31.30;98.80;;;;;;5141079;27;20222;-80
2021/06/19 13:26:09;;;;;;;538.70;496.60;;;31.30;99.00;;;;;;5146075;27;20202;-80
2021/06/19 13:28:46;;;;;;;364.60;340.02;;;31.30;98.40;;;;;;5135504;27;20214;-80
2021/06/19 13:36:42;;;;;;;577.50;531.67;;;31.40;97.30;;;;;;5140878;27;20202;-81
2021/06/19 13:42:01;;;;;;;549.45;506.88;;;31.00;96.90;;;;;;5128467;27;20199;-79
2021/06/19 13:55:25;;;;;;;721.42;665.22;;;31.10;98.00;;;;;;5142589;27;20202;-80
2021/06/19 13:57:59;;;;;;;488.77;453.90;;;31.20;98.20;;;;;;5124545;28;20203;-80
2021/06/19 14:08:36;;;;;;;550.83;507.83;;;31.00;97.70;;;;;;5132965;28;20239;-80
2021/06/19 14:13:53;;;;;;;380.70;354.30;;;30.80;97.80;;;;;;5138443;28;20210;-78
2021/06/19 14:21:46;;;;;;;417.95;388.13;;;30.90;97.80;;;;;;5142222;28;20590;-80
2021/06/19 14:24:13;;;;;;;398.67;370.10;;;31.00;97.80;;;;;;5141328;28;20272;-79
2021/06/19 14:26:41;;;;;;;362.05;337.33;;;31.00;97.30;;;;;;5141290;28;20229;-79
2021/06/19 14:29:16;;;;;;;726.92;670.60;;;30.90;97.90;;;;;;5135162;27;20196;-79
2021/06/19 14:31:43;;;;;;;392.40;364.98;;;31.00;97.80;;;;;;5139301;27;20260;-79
2021/06/19 14:34:10;;;;;;;381.52;354.70;;;31.00;97.40;;;;;;5126919;28;20207;-79
2021/06/19 14:44:48;;;;;;;433.73;402.20;;;30.80;97.70;;;;;;5123988;28;20280;-79
2021/06/19 14:47:19;;;;;;;520.55;480.02;;;30.70;97.90;;;;;;5131938;28;20244;-79
2021/06/19 14:49:46;;;;;;;550.53;507.10;;;30.80;98.20;;;;;;5137776;27;20209;-80
2021/06/19 14:52:15;;;;;;;575.50;529.95;;;30.80;98.30;;;;;;5134063;27;20195;-79
2021/06/19 14:57:39;;;;;;;388.75;362.77;;;30.60;99.10;;;;;;5139169;27;20206;-79
2021/06/19 15:05:29;;;;;;;652.25;600.60;;;30.20;98.70;;;;;;5145794;27;20218;-79
2021/06/19 15:07:56;;;;;;;690.88;636.83;;;30.30;99.10;;;;;;5141208;27;20205;-79
2021/06/19 15:10:23;;;;;;;640.42;590.17;;;30.30;99.30;;;;;;5137252;27;20251;-78
2021/06/19 15:18:21;;;;;;;673.03;619.50;;;30.50;99.10;;;;;;5137606;27;20203;-79
2021/06/19 15:29:06;;;;;;;679.15;625.60;;;30.00;99.70;;;;;;5133575;27;20199;-79
2021/06/19 15:31:36;;;;;;;698.15;643.70;;;30.00;99.70;;;;;;5132052;27;20253;-79
2021/06/19 15:42:11;;;;;;;710.15;655.15;;;30.10;99.90;;;;;;5144528;27;20213;-78
2021/06/19 15:55:30;;;;;;;374.40;348.45;;;30.30;99.40;;;;;;5132917;27;20203;-78
2021/06/19 16:00:47;;;;;;;354.15;330.77;;;30.40;99.90;;;;;;5126049;28;20218;-79
2021/06/19 16:13:57;;;;;;;387.67;361.52;;;30.50;99.00;;;;;;5125098;27;20203;-79
2021/06/19 16:29:53;;;;;;;334.98;313.08;;;30.30;99.70;;;;;;5135502;27;20319;-78
2021/06/19 16:32:29;;;;;;;319.95;299.15;;;30.30;99.90;;;;;;5140767;27;20207;-79
2021/06/19 16:34:56;;;;;;;352.73;328.42;;;30.20;99.90;;;;;;5138405;27;20200;-78
2021/06/19 16:37:23;;;;;;;697.53;643.03;;;30.10;99.90;;;;;;5139891;27;20316;-78
2021/06/19 16:42:38;;;;;;;577.92;532.67;;;30.10;99.90;;;;;;5131728;27;20206;-78
2021/06/19 16:45:06;;;;;;;744.08;687.05;;;30.20;99.90;;;;;;5134372;27;20226;-78
2021/06/19 16:47:34;;;;;;;728.22;672.00;;;30.20;99.90;;;;;;5138391;27;20198;-79
2021/06/19 16:58:12;;;;;;;779.97;720.60;;;30.10;99.90;;;;;;5128776;27;20210;-78
2021/06/19 17:08:42;;;;;;;607.22;559.50;;;29.90;99.90;;;;;;5134409;27;20210;-79
2021/06/19 17:11:09;;;;;;;601.67;554.10;;;29.80;99.90;;;;;;5139852;27;20199;-78
2021/06/19 17:13:37;;;;;;;551.13;508.20;;;29.80;99.90;;;;;;5125003;27;20207;-78
2021/06/19 17:19:02;;;;;;;532.38;490.98;;;29.60;99.90;;;;;;5135872;27;20206;-78
2021/06/19 17:24:10;;;;;;;575.40;530.15;;;29.50;99.90;;;;;;5139636;27;20219;-78
2021/06/19 17:26:39;;;;;;;558.53;514.75;;;29.60;99.90;;;;;;5135287;27;20222;-78
2021/06/19 17:29:07;;;;;;;579.47;533.78;;;29.60;99.90;;;;;;5132753;27;20195;-78